Time;durP1;ratioP1;P1;durP2;ratioP2;P2;SDS_P1;SDS_P2;PMS_P1;PMS_P2;Temp;Humidity;BMP_temperature;BMP_pressure;BME280_temperature;BME280_humidity;BME280_pressure;Samples;Min_cycle;Max_cycle;Signal;HPM_P1;HPM_P2
2022/08/22 00:01:28;;;;;;;3.22;2.40;;;17.00;91.50;;;16.85;66.88;97077.50;5032654;28;20060;-46
2022/08/22 00:04:21;;;;;;;4.50;2.60;;;17.00;91.50;;;16.82;67.12;97083.88;5031853;28;20048;-46
2022/08/22 00:06:58;;;;;;;3.90;2.40;;;17.00;91.60;;;16.78;67.58;97083.22;5016100;28;20021;-45
2022/08/22 00:09:34;;;;;;;4.32;2.63;;;16.90;91.80;;;16.77;67.92;97078.84;5035310;28;20021;-45
2022/08/22 00:12:32;;;;;;;4.80;2.63;;;16.90;92.00;;;16.76;69.55;97078.94;5013807;28;21046;-46
2022/08/22 00:15:00;;;;;;;4.75;2.90;;;16.90;92.50;;;16.76;70.23;97084.25;5014807;28;20040;-45
2022/08/22 00:17:32;;;;;;;5.78;2.45;;;16.90;92.80;;;16.73;70.96;97077.34;5018587;28;20044;-46
2022/08/22 00:20:23;;;;;;;4.18;2.80;;;16.90;93.00;;;16.78;71.01;97083.22;5015139;28;20030;-46
2022/08/22 00:23:03;;;;;;;6.18;2.67;;;16.90;93.20;;;16.79;70.28;97084.06;5020753;28;20033;-44
2022/08/22 00:26:05;;;;;;;5.43;2.63;;;16.90;93.00;;;16.85;69.45;97081.03;5017277;28;20025;-45
2022/08/22 00:28:40;;;;;;;4.10;2.17;;;16.90;92.70;;;16.84;69.54;97076.66;5034078;28;20376;-46
2022/08/22 00:31:35;;;;;;;3.13;2.38;;;17.00;92.80;;;16.80;70.46;97070.66;5016176;28;20029;-45
2022/08/22 00:34:09;;;;;;;4.55;2.65;;;16.90;93.00;;;16.74;71.99;97065.75;5013460;28;20120;-47
2022/08/22 00:36:49;;;;;;;5.38;2.97;;;16.90;93.60;;;16.66;72.35;97072.53;5014278;28;20033;-45
2022/08/22 00:39:39;;;;;;;5.13;2.80;;;16.80;93.70;;;16.55;72.02;97058.13;5017855;28;20434;-45
2022/08/22 00:42:34;;;;;;;5.15;2.60;;;16.70;93.70;;;16.46;71.86;97066.72;5031927;28;20043;-46
2022/08/22 00:45:27;;;;;;;4.57;2.40;;;16.60;93.60;;;16.37;71.84;97062.03;5016959;28;20137;-46
2022/08/22 00:48:17;;;;;;;4.32;2.53;;;16.50;93.60;;;16.29;71.57;97065.16;5034488;28;20040;-46
2022/08/22 00:51:13;;;;;;;3.88;2.33;;;16.40;93.60;;;16.25;70.81;97060.16;5033613;28;20159;-47
2022/08/22 00:53:52;;;;;;;4.15;2.80;;;16.40;93.40;;;16.24;69.69;97061.97;5015602;28;20091;-46
2022/08/22 00:56:39;;;;;;;3.75;2.35;;;16.30;93.20;;;16.18;70.73;97062.34;5015585;28;20021;-45
2022/08/22 00:59:11;;;;;;;4.20;2.40;;;16.30;93.40;;;16.11;71.89;97053.91;5031843;28;20031;-46
2022/08/22 01:02:02;;;;;;;3.53;2.33;;;16.20;93.80;;;16.04;72.89;97057.91;5033827;28;20354;-45
2022/08/22 01:05:06;;;;;;;3.08;2.38;;;16.20;94.20;;;15.88;72.76;97039.47;5034256;28;20083;-44
2022/08/22 01:08:02;;;;;;;4.63;2.63;;;16.20;94.20;;;15.99;73.28;97062.72;5034398;28;20045;-46
2022/08/22 01:11:08;;;;;;;5.00;2.75;;;16.10;94.40;;;15.96;72.78;97062.91;5032585;28;20025;-45
2022/08/22 01:14:13;;;;;;;6.13;2.58;;;16.10;94.40;;;15.95;72.15;97055.84;5032607;28;20654;-44
2022/08/22 01:17:07;;;;;;;3.85;2.58;;;16.10;94.10;;;15.89;73.02;97051.78;5016703;28;20025;-46
2022/08/22 01:20:14;;;;;;;3.33;2.42;;;16.00;94.40;;;15.80;74.40;97055.03;5017101;28;20489;-47
2022/08/22 01:23:05;;;;;;;4.70;2.50;;;15.90;94.80;;;15.72;74.49;97054.63;5016492;28;20052;-44
2022/08/22 01:26:20;;;;;;;3.45;1.98;;;15.90;94.90;;;15.69;73.74;97055.69;5032320;28;20029;-45
2022/08/22 01:29:18;;;;;;;3.97;2.20;;;15.90;94.80;;;15.69;72.28;97055.69;5031007;28;20488;-46
2022/08/22 01:36:09;;;;;;;3.67;2.40;;;15.80;94.60;;;15.64;74.27;97053.31;4996202;28;20049;-47
2022/08/22 01:39:31;;;;;;;5.95;2.60;;;15.80;95.00;;;15.63;73.81;97054.28;5012231;28;20037;-45
2022/08/22 01:42:58;;;;;;;5.60;2.47;;;15.80;95.00;;;15.64;73.30;97052.47;5032717;28;20508;-48
2022/08/22 01:45:56;;;;;;;4.65;2.13;;;15.80;94.80;;;15.58;73.48;97048.38;5013866;28;20033;-45
2022/08/22 01:48:49;;;;;;;4.82;2.50;;;15.70;94.90;;;15.57;73.65;97059.09;5032188;28;20048;-45
2022/08/22 01:51:50;;;;;;;4.43;2.40;;;15.70;95.00;;;15.53;74.31;97054.94;5025038;28;20436;-45
2022/08/22 01:54:36;;;;;;;4.43;2.72;;;15.60;95.20;;;15.46;76.80;97059.78;5016595;28;20033;-45
2022/08/22 01:57:06;;;;;;;3.50;2.45;;;15.60;96.10;;;15.38;77.46;97060.25;5031763;23;20071;-44
2022/08/22 01:59:40;;;;;;;4.25;2.53;;;15.60;96.30;;;15.34;77.88;97063.19;5021850;28;20065;-45
2022/08/22 02:02:47;;;;;;;3.72;2.40;;;15.50;96.50;;;15.27;77.23;97062.69;5040617;28;20044;-44
2022/08/22 02:05:45;;;;;;;5.68;2.20;;;15.40;96.30;;;15.23;77.92;97059.38;5040467;28;20044;-45
2022/08/22 02:08:44;;;;;;;4.05;2.55;;;15.40;96.60;;;15.19;79.00;97054.38;5004309;28;20108;-43
2022/08/22 02:11:50;;;;;;;4.00;2.65;;;15.30;97.00;;;15.15;79.31;97053.69;5019539;28;20373;-44
2022/08/22 02:14:40;;;;;;;5.20;3.10;;;15.30;97.20;;;15.13;79.83;97049.41;5005216;28;20049;-44
2022/08/22 02:17:30;;;;;;;6.20;2.92;;;15.30;97.40;;;14.93;79.95;97030.25;5002104;28;20021;-43
2022/08/22 02:20:03;;;;;;;7.80;3.40;;;15.20;97.50;;;15.07;80.90;97064.78;5003714;28;20072;-43
2022/08/22 02:22:34;;;;;;;4.72;3.00;;;15.20;97.90;;;15.03;80.50;97068.56;5018652;28;20485;-44
2022/08/22 02:25:08;;;;;;;4.50;2.63;;;15.20;97.80;;;15.01;81.02;97064.31;5022144;28;20056;-44
2022/08/22 02:27:46;;;;;;;4.20;2.80;;;15.20;98.10;;;14.96;81.79;97066.38;5006676;28;20033;-43
2022/08/22 02:30:19;;;;;;;5.03;2.85;;;15.10;98.40;;;14.91;82.80;97068.44;5004004;28;20037;-45
2022/08/22 02:32:53;;;;;;;;;;;15.10;98.70;;;14.78;83.19;97047.09;5015987;28;20490;-48
2022/08/22 02:36:27;;;;;;;4.05;2.70;;;15.00;98.90;;;14.79;82.45;97059.44;5025213;28;20082;-43
2022/08/22 02:39:36;;;;;;;3.90;2.60;;;15.00;98.90;;;14.77;82.54;97062.16;4973659;28;20415;-43
2022/08/22 02:42:33;;;;;;;4.60;3.03;;;14.90;98.90;;;14.75;83.95;97053.44;5024263;28;20120;-45
2022/08/22 02:45:22;;;;;;;5.32;3.03;;;14.90;99.50;;;14.20;84.81;96971.75;5024079;28;20520;-44
2022/08/22 02:48:09;;;;;;;4.13;2.72;;;14.90;99.90;;;14.67;85.42;97053.03;5022214;28;20017;-43
2022/08/22 02:50:48;;;;;;;4.65;3.03;;;14.80;99.90;;;14.62;86.17;97045.34;5024484;28;20469;-43
2022/08/22 02:53:31;;;;;;;4.72;2.80;;;14.80;99.90;;;14.59;86.32;97042.00;5024363;28;20033;-44
2022/08/22 02:56:22;;;;;;;5.10;3.10;;;14.80;99.90;;;14.57;87.04;97039.44;5022319;28;20036;-44
2022/08/22 02:59:15;;;;;;;8.48;3.00;;;14.70;99.90;;;14.52;87.97;97037.03;5021575;28;20040;-44
2022/08/22 03:01:45;;;;;;;4.90;3.10;;;14.70;99.90;;;14.47;88.67;97033.78;5005050;28;20084;-44
2022/08/22 03:04:50;;;;;;;4.97;3.17;;;14.70;99.90;;;14.43;89.23;97034.94;5006184;28;20031;-44
2022/08/22 03:07:29;;;;;;;4.68;2.90;;;14.70;99.90;;;14.41;89.73;97034.16;5023248;28;20057;-46
2022/08/22 03:10:04;;;;;;;4.53;2.63;;;14.60;99.90;;;14.36;89.70;97030.91;5006732;28;20052;-47
2022/08/22 03:12:53;;;;;;;5.18;2.67;;;14.60;99.90;;;14.38;90.34;97037.00;5023490;28;20472;-43
2022/08/22 03:15:41;;;;;;;7.50;3.10;;;14.50;99.90;;;14.36;91.35;97040.69;5006103;28;20128;-43
2022/08/22 03:18:20;;;;;;;4.43;2.85;;;14.60;99.90;;;14.32;92.31;97038.19;5022466;28;20421;-44
2022/08/22 03:20:57;;;;;;;7.03;3.03;;;14.50;99.90;;;14.27;92.59;97034.97;5006721;28;20603;-44
2022/08/22 03:23:32;;;;;;;4.85;2.63;;;14.50;99.90;;;14.23;91.85;97040.50;5014356;28;20084;-44
2022/08/22 03:26:18;;;;;;;5.75;3.28;;;14.40;99.90;;;14.18;90.84;97037.28;5022501;28;20483;-43
2022/08/22 03:29:03;;;;;;;5.70;3.10;;;14.40;99.90;;;14.07;91.27;97032.59;5021694;28;20052;-44
2022/08/22 03:31:31;;;;;;;5.13;2.83;;;14.30;99.90;;;14.05;91.97;97035.34;5007737;28;20037;-44
2022/08/22 03:34:21;;;;;;;5.07;2.90;;;14.30;99.90;;;14.01;92.38;97035.59;5005319;28;20600;-44
2022/08/22 03:37:18;;;;;;;4.70;2.90;;;14.20;99.90;;;13.95;93.15;97036.78;5024087;28;20478;-45
2022/08/22 03:40:01;;;;;;;8.40;3.45;;;14.20;99.90;;;13.84;94.34;97026.78;4987894;28;20374;-45
2022/08/22 03:43:17;;;;;;;5.13;3.45;;;14.10;99.90;;;13.83;95.18;97035.66;5005477;28;20121;-44
2022/08/22 03:46:27;;;;;;;4.90;3.30;;;14.00;99.90;;;13.76;96.15;97031.66;5018749;28;20041;-43
2022/08/22 03:49:24;;;;;;;7.72;3.53;;;14.00;99.90;;;13.74;96.60;97029.06;5023399;28;20055;-43
2022/08/22 03:52:31;;;;;;;4.15;3.00;;;14.00;99.90;;;13.69;97.18;97025.84;5023227;28;20029;-43
2022/08/22 03:55:32;;;;;;;5.30;3.38;;;14.00;99.90;;;13.70;97.72;97032.00;5022846;28;20022;-43
2022/08/22 03:58:44;;;;;;;4.72;3.28;;;13.90;99.90;;;13.69;98.58;97036.47;5021513;28;20048;-43
2022/08/22 04:01:38;;;;;;;4.53;3.33;;;13.90;99.90;;;13.66;98.79;97039.25;5020681;28;20036;-45
2022/08/22 04:04:09;;;;;;;5.68;3.13;;;13.90;99.90;;;13.63;99.11;97050.03;5021963;28;20037;-44
2022/08/22 04:07:01;;;;;;;5.10;3.20;;;13.80;99.90;;;13.60;99.40;97044.88;5020926;28;20386;-45
2022/08/22 04:10:06;;;;;;;6.20;3.58;;;13.80;99.90;;;13.60;100.00;97058.13;5004524;28;20375;-45
2022/08/22 04:13:08;;;;;;;6.47;4.15;;;13.80;99.90;;;13.51;100.00;97046.28;5006952;28;20123;-44
2022/08/22 04:16:11;;;;;;;7.55;3.50;;;13.70;99.90;;;13.53;100.00;97052.34;5022317;28;20044;-45
2022/08/22 04:19:04;;;;;;;5.90;3.78;;;13.70;99.90;;;13.51;100.00;97058.63;5020304;28;20041;-45
2022/08/22 04:22:33;;;;;;;5.22;3.58;;;13.70;99.90;;;13.48;100.00;97061.47;5021282;28;20417;-43
2022/08/22 04:25:15;;;;;;;5.47;3.80;;;13.70;99.90;;;13.47;100.00;97057.94;5022452;28;20065;-46
2022/08/22 04:28:07;;;;;;;6.43;3.42;;;13.70;99.90;;;13.46;100.00;97063.31;5021967;28;20689;-43
2022/08/22 04:31:12;;;;;;;5.38;3.50;;;13.70;99.90;;;13.47;100.00;97060.59;5020542;28;20127;-44
2022/08/22 04:33:52;;;;;;;5.50;3.85;;;13.70;99.90;;;13.47;100.00;97057.09;5022065;28;20044;-44
2022/08/22 04:36:28;;;;;;;6.18;4.00;;;13.70;99.90;;;13.47;100.00;97063.25;5005152;28;20049;-46
2022/08/22 04:39:19;;;;;;;5.03;3.28;;;13.70;99.90;;;13.47;100.00;97055.31;5021315;28;20041;-44
2022/08/22 04:42:14;;;;;;;5.82;4.07;;;13.70;99.90;;;13.36;100.00;97039.13;5007815;28;20425;-45
2022/08/22 04:44:56;;;;;;;7.38;3.95;;;13.70;99.90;;;13.52;100.00;97063.84;5013984;28;20567;-47
2022/08/22 04:47:42;;;;;;;5.10;3.63;;;13.70;99.90;;;13.57;100.00;97058.31;5023233;28;20102;-46
2022/08/22 04:50:22;;;;;;;6.07;3.53;;;13.80;99.90;;;13.61;100.00;97072.25;5022264;28;20029;-44
2022/08/22 04:52:53;;;;;;;5.43;3.42;;;13.80;99.90;;;13.65;100.00;97061.38;5003586;28;20017;-44
2022/08/22 04:55:45;;;;;;;4.60;3.47;;;13.80;99.90;;;13.65;100.00;97063.19;5019401;28;20032;-45
2022/08/22 04:58:49;;;;;;;5.57;3.57;;;13.90;99.90;;;13.73;100.00;97066.28;5007065;28;20036;-44
2022/08/22 05:01:24;;;;;;;5.28;3.60;;;13.90;99.90;;;13.78;100.00;97068.66;5002599;28;20041;-44
2022/08/22 05:04:03;;;;;;;5.80;3.45;;;14.00;99.90;;;13.80;100.00;97083.56;5004472;28;20504;-45
2022/08/22 05:06:34;;;;;;;5.97;3.67;;;14.00;99.90;;;13.84;100.00;97079.81;5021817;28;20033;-44
2022/08/22 05:09:11;;;;;;;7.30;3.78;;;14.10;99.90;;;13.88;100.00;97083.97;5004172;28;20508;-44
2022/08/22 05:11:40;;;;;;;5.32;3.47;;;14.10;99.90;;;13.97;100.00;97087.91;5007071;28;20397;-46
2022/08/22 05:14:38;;;;;;;4.43;3.38;;;14.20;99.90;;;14.06;100.00;97081.25;5003515;28;20549;-45
2022/08/22 05:17:11;;;;;;;5.80;3.88;;;14.20;99.90;;;14.15;100.00;97082.53;5017067;28;20120;-43
2022/08/22 05:19:43;;;;;;;6.30;3.72;;;14.30;99.90;;;14.20;100.00;97089.28;5006087;28;20033;-44
2022/08/22 05:22:23;;;;;;;5.83;3.63;;;14.40;99.90;;;14.23;100.00;97091.78;5019021;28;20038;-44
2022/08/22 05:24:55;;;;;;;4.97;3.53;;;14.40;99.90;;;14.24;100.00;97084.66;5003721;28;20276;-43
2022/08/22 05:27:24;;;;;;;;;;;14.50;99.90;;;14.26;100.00;97083.63;5020137;28;20035;-45
2022/08/22 05:29:54;;;;;;;7.68;3.80;;;14.50;99.90;;;14.32;100.00;97083.28;5003077;28;19924;-44
2022/08/22 05:32:48;;;;;;;4.45;3.22;;;14.60;99.90;;;14.45;100.00;97082.59;5003441;28;20022;-43
2022/08/22 05:35:15;;;;;;;9.77;3.78;;;14.60;99.90;;;14.55;100.00;97089.06;4999806;28;20121;-44
2022/08/22 05:37:48;;;;;;;7.88;4.00;;;14.80;99.90;;;14.67;100.00;97092.84;5004657;28;20087;-44
2022/08/22 05:40:23;;;;;;;8.13;4.45;;;14.90;99.90;;;14.76;98.87;97092.31;5020194;28;20499;-44
2022/08/22 05:42:51;;;;;;;5.03;3.42;;;15.00;99.90;;;14.87;98.04;97091.66;5006730;28;20036;-44
2022/08/22 05:45:18;;;;;;;5.97;4.57;;;15.10;99.90;;;14.96;96.92;97088.47;5003982;28;20024;-46
2022/08/22 05:47:50;;;;;;;6.78;4.43;;;15.20;99.90;;;15.07;96.17;97090.47;5005275;28;20025;-46
2022/08/22 05:50:27;;;;;;;;;;;15.30;99.90;;;15.14;95.46;97090.97;5006176;28;20030;-47
2022/08/22 05:53:05;;;;;;;7.68;4.25;;;15.40;99.90;;;15.26;94.97;97096.38;5022294;28;20392;-47
2022/08/22 05:56:08;;;;;;;11.85;4.60;;;15.50;99.90;;;15.35;94.76;97086.16;5008136;28;20090;-47
2022/08/22 05:59:02;;;;;;;6.18;4.03;;;15.60;99.90;;;15.44;93.69;97094.41;5004721;28;20025;-44
2022/08/22 06:01:45;;;;;;;5.70;3.80;;;15.70;99.90;;;15.52;92.87;97093.09;5024012;28;20048;-43
2022/08/22 06:04:46;;;;;;;7.05;3.80;;;15.80;99.90;;;15.60;92.12;97093.47;5007751;28;20409;-44
2022/08/22 06:07:32;;;;;;;10.45;4.53;;;15.80;99.90;;;15.68;91.49;97088.53;5006122;28;20057;-43
2022/08/22 06:10:26;;;;;;;8.43;3.92;;;15.90;99.90;;;15.78;91.03;97095.00;5006798;28;20103;-47
2022/08/22 06:13:08;;;;;;;4.90;3.55;;;16.00;99.90;;;15.89;90.59;97096.16;5021362;28;20044;-45
2022/08/22 06:15:51;;;;;;;6.82;4.38;;;16.10;99.90;;;15.91;89.92;97083.59;5005838;28;20081;-47
2022/08/22 06:18:24;;;;;;;8.65;4.22;;;16.20;99.90;;;16.05;89.23;97099.53;5022725;28;20022;-47
2022/08/22 06:21:00;;;;;;;7.25;4.43;;;16.30;99.90;;;16.10;88.84;97094.78;5024911;28;20476;-46
2022/08/22 06:23:49;;;;;;;6.72;4.10;;;16.40;99.90;;;16.21;88.29;97097.59;5023654;28;20516;-46
2022/08/22 06:26:17;;;;;;;4.88;3.80;;;16.40;99.90;;;16.28;87.84;97102.53;5024769;28;20021;-43
2022/08/22 06:28:47;;;;;;;6.72;4.45;;;16.50;99.90;;;16.33;87.72;97098.63;5006865;28;20444;-43
2022/08/22 06:31:26;;;;;;;6.47;4.20;;;16.60;99.90;;;16.41;87.37;97103.44;5007139;28;20061;-45
2022/08/22 06:34:22;;;;;;;6.38;4.07;;;16.60;99.90;;;16.49;86.75;97098.47;5023032;28;20115;-47
2022/08/22 06:36:51;;;;;;;6.05;3.83;;;16.70;99.90;;;16.59;86.08;97104.88;5022990;28;20087;-46
2022/08/22 06:39:26;;;;;;;5.72;3.92;;;16.80;99.90;;;16.68;85.24;97103.44;5009176;28;20201;-44
2022/08/22 06:42:09;;;;;;;5.63;4.00;;;16.90;99.90;;;16.62;83.51;97082.53;5007079;28;20353;-44
2022/08/22 06:44:50;;;;;;;8.77;4.00;;;17.10;99.90;;;16.88;82.18;97096.78;5023361;28;20057;-44
2022/08/22 06:47:25;;;;;;;6.40;4.35;;;17.20;99.90;;;16.95;81.20;97094.56;5022485;28;20021;-44
2022/08/22 06:50:00;;;;;;;8.43;3.83;;;17.20;99.90;;;17.06;80.94;97100.03;5023618;28;20037;-48
2022/08/22 06:52:29;;;;;;;6.07;4.55;;;17.30;99.90;;;17.14;79.02;97104.84;5009725;28;20022;-47
2022/08/22 06:55:08;;;;;;;8.25;4.53;;;17.40;99.90;;;17.26;78.93;97097.81;5008342;28;20314;-44
2022/08/22 06:58:06;;;;;;;8.45;3.90;;;17.50;99.90;;;17.40;78.38;97103.03;5022835;28;20028;-45
2022/08/22 07:00:34;;;;;;;7.25;4.03;;;17.60;99.90;;;17.53;77.73;97113.69;5007774;28;20033;-43
2022/08/22 07:03:16;;;;;;;7.22;4.30;;;17.80;99.90;;;17.68;76.68;97117.13;5008547;28;20082;-45
2022/08/22 07:05:42;;;;;;;10.57;5.07;;;17.90;99.90;;;17.82;74.27;97126.81;5007002;28;20076;-44
2022/08/22 07:08:15;;;;;;;9.00;4.03;;;18.00;99.90;;;17.98;73.84;97122.16;5006851;28;20079;-43
2022/08/22 07:10:57;;;;;;;6.97;4.13;;;18.20;99.90;;;18.16;73.54;97124.44;5008919;28;20041;-45
2022/08/22 07:13:26;;;;;;;7.78;4.18;;;18.30;99.90;;;18.30;72.01;97127.84;5021914;28;20047;-43
2022/08/22 07:16:00;;;;;;;7.43;4.10;;;18.50;99.90;;;18.46;71.30;97124.88;5005137;28;20464;-47
2022/08/22 07:18:28;;;;;;;5.72;3.75;;;18.60;99.90;;;18.60;69.23;97125.69;5006598;28;20489;-44
2022/08/22 07:21:01;;;;;;;11.10;3.83;;;18.80;99.90;;;18.78;68.52;97123.47;5022088;28;20026;-45
2022/08/22 07:23:44;;;;;;;6.50;3.47;;;18.90;99.90;;;18.95;68.29;97122.22;5009564;28;20029;-46
2022/08/22 07:26:33;;;;;;;8.02;4.03;;;19.10;99.90;;;19.12;66.41;97120.97;5022364;28;20067;-44
2022/08/22 07:29:06;;;;;;;7.70;3.53;;;19.30;99.90;;;19.26;65.75;97121.63;5007025;28;20130;-48
2022/08/22 07:31:50;;;;;;;9.35;3.60;;;19.40;99.90;;;19.40;65.24;97122.38;5004890;28;20098;-44
2022/08/22 07:34:58;;;;;;;5.82;3.42;;;19.50;99.90;;;19.57;65.02;97124.59;5006816;28;20056;-43
2022/08/22 07:38:06;;;;;;;6.95;3.70;;;19.70;99.90;;;19.77;63.57;97122.22;5007613;28;20036;-44
2022/08/22 07:40:47;;;;;;;7.07;2.97;;;19.80;99.50;;;19.80;61.89;97106.75;5005634;28;20044;-43
2022/08/22 07:43:40;;;;;;;5.03;3.00;;;20.00;99.40;;;20.07;58.88;97124.28;5021368;28;20496;-48
2022/08/22 07:46:29;;;;;;;6.00;2.80;;;20.10;98.10;;;20.25;58.52;97126.47;5006251;28;20528;-48
2022/08/22 07:49:20;;;;;;;5.68;3.58;;;20.30;97.50;;;20.39;57.85;97129.72;5006456;28;20045;-48
2022/08/22 07:51:57;;;;;;;4.47;2.70;;;20.40;96.80;;;20.53;57.41;97133.09;5022282;28;20060;-48
2022/08/22 07:54:40;;;;;;;6.78;2.88;;;20.50;97.00;;;20.62;57.19;97136.88;5005252;28;20095;-49
2022/08/22 07:57:28;;;;;;;4.22;2.70;;;20.60;96.60;;;20.71;56.86;97134.31;5024904;22;20041;-47
2022/08/22 07:59:57;;;;;;;3.70;2.72;;;20.70;96.30;;;20.78;56.32;97127.47;5030892;28;20021;-51
2022/08/22 08:02:23;;;;;;;6.65;2.60;;;20.80;96.20;;;20.90;56.52;97127.41;5016799;28;20024;-48
2022/08/22 08:04:53;;;;;;;4.60;2.65;;;20.90;96.20;;;20.99;54.94;97137.38;5016863;28;20026;-50
2022/08/22 08:07:24;;;;;;;3.70;2.50;;;21.00;95.60;;;21.05;54.85;97142.25;5015706;28;20024;-47
2022/08/22 08:09:58;;;;;;;4.18;2.65;;;21.10;95.40;;;21.01;54.01;97129.19;5033442;28;20021;-48
2022/08/22 08:12:35;;;;;;;6.18;2.70;;;21.20;94.90;;;21.25;53.79;97145.91;5014793;28;20111;-48
2022/08/22 08:15:07;;;;;;;4.38;2.72;;;21.30;94.60;;;21.36;53.77;97143.16;5014946;28;20052;-49
2022/08/22 08:17:35;;;;;;;7.60;3.03;;;21.30;94.50;;;21.44;54.35;97147.88;5015520;28;20017;-47
2022/08/22 08:20:09;;;;;;;3.92;2.65;;;21.50;94.70;;;21.54;53.61;97156.88;5033116;28;20029;-48
2022/08/22 08:22:37;;;;;;;4.82;2.80;;;21.50;94.40;;;21.61;54.09;97157.22;5017799;28;20044;-47
2022/08/22 08:25:06;;;;;;;3.95;2.78;;;21.60;94.30;;;21.65;54.78;97147.91;5017074;28;20061;-51
2022/08/22 08:30:39;;;;;;;4.53;2.97;;;21.70;94.20;;;21.87;53.34;97149.56;5024176;28;20139;-48
2022/08/22 08:33:07;;;;;;;5.85;3.20;;;21.90;93.90;;;21.91;53.28;97151.03;5032229;28;20457;-47
2022/08/22 08:35:39;;;;;;;5.15;3.17;;;21.90;93.70;;;21.97;53.10;97146.13;5016345;28;20113;-47
2022/08/22 08:38:11;;;;;;;5.60;3.13;;;22.00;93.70;;;22.07;53.06;97149.66;5015151;28;20646;-47
2022/08/22 08:40:56;;;;;;;4.70;3.03;;;22.00;93.50;;;22.19;52.12;97150.44;5016287;28;20122;-50
2022/08/22 08:43:33;;;;;;;3.83;2.97;;;22.10;93.30;;;22.26;51.77;97146.22;5033551;28;20021;-55
2022/08/22 08:46:11;;;;;;;5.38;3.10;;;22.20;92.70;;;22.30;51.98;97150.34;5014916;28;20028;-47
2022/08/22 08:49:08;;;;;;;5.55;3.40;;;22.30;92.90;;;22.37;51.49;97146.16;5035459;28;20060;-49
2022/08/22 08:51:49;;;;;;;4.55;3.10;;;22.40;92.60;;;22.47;51.33;97144.34;5031429;28;20185;-48
2022/08/22 08:54:26;;;;;;;6.18;3.08;;;22.40;92.30;;;22.58;51.65;97150.59;5031480;28;20485;-50
2022/08/22 08:57:41;;;;;;;4.15;2.58;;;22.50;92.50;;;22.73;51.60;97142.97;5031501;28;20049;-46
2022/08/22 09:00:16;;;;;;;5.43;3.50;;;22.70;92.60;;;22.80;51.42;97138.75;5005230;28;20232;-49
2022/08/22 09:03:07;;;;;;;6.03;3.17;;;22.80;92.40;;;22.86;52.19;97141.75;5016803;28;20117;-48
2022/08/22 09:05:45;;;;;;;3.45;2.58;;;22.80;92.60;;;22.97;51.98;97138.06;5015676;28;20221;-48
2022/08/22 09:08:43;;;;;;;4.60;3.00;;;22.90;92.60;;;23.06;51.81;97139.94;5030754;28;20022;-47
2022/08/22 09:11:56;;;;;;;6.10;3.47;;;23.00;92.30;;;23.19;51.13;97136.97;5009091;28;20045;-48
2022/08/22 09:14:44;;;;;;;4.07;3.08;;;23.20;92.20;;;23.24;51.44;97125.78;5033102;28;20025;-48
2022/08/22 09:17:46;;;;;;;3.28;2.97;;;23.20;91.80;;;23.30;50.85;97141.34;5034041;28;20037;-47
2022/08/22 09:21:02;;;;;;;5.15;3.58;;;23.20;91.70;;;23.29;51.74;97138.78;5031824;28;20076;-50
2022/08/22 09:24:05;;;;;;;5.53;3.70;;;23.30;92.10;;;23.33;51.87;97138.38;5031663;28;20427;-47
2022/08/22 09:27:11;;;;;;;4.88;3.25;;;23.30;92.10;;;23.50;50.94;97136.78;5033606;28;20039;-47
2022/08/22 09:29:47;;;;;;;5.40;3.30;;;23.50;91.60;;;23.59;51.23;97135.91;4996910;28;20072;-50
2022/08/22 09:32:32;;;;;;;5.45;3.45;;;23.50;91.60;;;23.63;51.05;97134.66;5016901;28;20018;-49
2022/08/22 09:35:07;;;;;;;5.45;3.20;;;23.60;91.50;;;23.68;50.74;97134.19;5035134;28;20063;-48
2022/08/22 09:38:01;;;;;;;3.85;3.20;;;23.70;91.50;;;23.73;50.64;97134.63;5021218;28;20233;-49
2022/08/22 09:40:41;;;;;;;3.58;2.97;;;23.70;91.30;;;23.75;50.11;97135.31;5018127;28;20033;-47
2022/08/22 09:43:17;;;;;;;4.82;3.25;;;23.70;90.90;;;23.84;49.99;97133.63;5037407;28;20278;-49
2022/08/22 09:46:10;;;;;;;4.45;3.45;;;23.80;90.90;;;23.97;50.16;97141.38;5020404;28;20412;-47
2022/08/22 09:48:47;;;;;;;3.53;3.00;;;23.90;91.10;;;24.05;49.35;97140.63;5037634;28;20021;-46
2022/08/22 09:51:40;;;;;;;5.03;3.80;;;24.00;90.40;;;24.09;49.71;97131.28;5019458;28;20080;-46
2022/08/22 09:54:26;;;;;;;4.82;2.97;;;24.10;90.60;;;24.23;49.87;97132.63;5019315;28;20797;-47
2022/08/22 09:57:07;;;;;;;4.68;3.58;;;24.10;91.10;;;24.38;47.73;97133.84;5018871;28;20051;-49
2022/08/22 10:00:12;;;;;;;4.53;3.20;;;24.30;90.10;;;24.52;48.80;97132.50;5034218;28;20032;-51
2022/08/22 10:03:16;;;;;;;5.07;3.80;;;24.50;89.60;;;24.55;47.46;97133.06;5037165;28;20048;-47
2022/08/22 10:06:07;;;;;;;4.68;3.10;;;24.50;88.60;;;24.54;47.65;97134.06;5019942;28;20021;-51
2022/08/22 10:09:03;;;;;;;4.90;3.22;;;24.50;88.40;;;24.53;47.37;97134.19;5032799;28;20034;-47
2022/08/22 10:11:44;;;;;;;5.25;3.50;;;24.50;88.00;;;24.60;46.47;97134.44;5016355;28;20370;-50
2022/08/22 10:14:19;;;;;;;5.05;3.47;;;24.50;87.10;;;24.61;46.01;97130.78;5035340;28;20037;-51
2022/08/22 10:17:17;;;;;;;3.67;3.08;;;24.60;85.30;;;24.79;45.97;97133.50;5019290;28;20037;-48
2022/08/22 10:20:23;;;;;;;4.70;3.38;;;24.70;85.80;;;24.81;45.19;97131.50;5034609;28;20443;-48
2022/08/22 10:23:02;;;;;;;6.05;3.53;;;24.80;84.40;;;24.81;43.94;97132.31;5020665;28;20095;-48
2022/08/22 10:25:58;;;;;;;3.60;2.97;;;24.80;82.40;;;24.89;43.45;97123.47;5036924;28;20029;-49
2022/08/22 10:28:46;;;;;;;4.28;2.88;;;24.90;81.60;;;25.00;42.62;97120.56;5021931;28;20021;-47
2022/08/22 10:31:50;;;;;;;5.53;2.90;;;24.90;79.90;;;25.14;41.76;97117.31;5036739;28;20037;-50
2022/08/22 10:34:19;;;;;;;3.63;2.85;;;25.10;78.50;;;25.28;41.51;97118.63;5020480;28;20033;-49
2022/08/22 10:37:40;;;;;;;3.83;2.90;;;25.20;77.80;;;25.33;40.15;97120.88;5034784;28;20463;-47
2022/08/22 10:40:12;;;;;;;5.25;2.90;;;25.30;77.60;;;25.37;39.71;97118.72;5017004;28;20032;-48
2022/08/22 10:42:52;;;;;;;5.07;3.00;;;25.30;73.70;;;25.57;39.97;97116.66;5035830;28;20025;-50
2022/08/22 10:45:33;;;;;;;4.30;2.53;;;25.50;74.40;;;25.75;38.22;97117.44;5016059;28;20024;-50
2022/08/22 10:48:04;;;;;;;4.32;2.58;;;25.70;72.20;;;25.89;35.27;97116.88;5016603;28;20052;-51
2022/08/22 10:50:39;;;;;;;3.63;2.33;;;25.90;67.00;;;26.05;35.34;97115.31;5035549;28;20030;-50
2022/08/22 10:53:34;;;;;;;4.93;3.08;;;26.00;66.20;;;26.23;34.48;97099.00;5034961;28;20036;-48
2022/08/22 10:56:25;;;;;;;6.50;2.80;;;26.20;64.40;;;26.40;34.67;97094.53;5017496;28;20039;-51
2022/08/22 10:59:38;;;;;;;6.68;3.00;;;26.30;65.70;;;26.43;36.78;97088.78;5034567;28;20036;-46
2022/08/22 11:02:33;;;;;;;3.42;2.78;;;26.40;66.00;;;26.54;36.02;97090.31;5032358;28;20501;-49
2022/08/22 11:05:31;;;;;;;6.22;2.88;;;26.60;65.90;;;26.61;34.01;97092.25;5017628;28;20017;-48
2022/08/22 11:08:27;;;;;;;3.45;2.70;;;26.70;62.10;;;26.70;34.97;97087.69;5014705;28;20514;-50
2022/08/22 11:11:17;;;;;;;3.58;2.63;;;26.80;63.10;;;26.72;35.67;97084.81;5033407;28;20037;-48
2022/08/22 11:14:05;;;;;;;4.43;3.03;;;26.80;64.50;;;26.74;35.07;97083.66;5019026;28;20400;-47
2022/08/22 11:16:49;;;;;;;3.97;2.80;;;26.80;63.60;;;26.81;35.45;97079.28;5035419;28;20029;-50
2022/08/22 11:19:26;;;;;;;5.22;2.95;;;26.90;63.10;;;26.81;35.43;97086.53;5035395;28;20029;-49
2022/08/22 11:22:55;;;;;;;6.43;2.70;;;26.90;62.90;;;26.71;33.76;97094.81;5013675;28;20033;-51
2022/08/22 11:26:00;;;;;;;5.85;2.90;;;26.90;60.20;;;26.70;35.36;97086.84;4979572;28;20038;-47
2022/08/22 11:28:58;;;;;;;4.07;2.70;;;26.90;62.20;;;26.70;36.88;97068.75;5020539;28;20033;-47
2022/08/22 11:31:40;;;;;;;5.80;3.60;;;26.80;65.20;;;26.60;37.13;97068.88;5035376;28;20048;-50
2022/08/22 11:34:16;;;;;;;3.97;3.13;;;26.80;66.10;;;26.69;37.42;97075.19;5033939;28;20908;-47
2022/08/22 11:37:07;;;;;;;4.47;2.75;;;26.70;65.40;;;26.69;36.11;97064.38;5035232;28;20449;-50
2022/08/22 11:39:56;;;;;;;3.65;3.15;;;26.80;63.90;;;26.67;35.51;97069.94;5033573;28;20365;-48
2022/08/22 11:43:10;;;;;;;3.95;3.13;;;26.70;62.40;;;26.58;36.26;97073.63;5017225;28;20028;-52
2022/08/22 11:45:47;;;;;;;5.20;2.90;;;26.60;63.70;;;26.42;35.44;97068.16;5034127;28;20086;-45